createdAt,value
2022-08-09T00:04:06.026Z,64.62
2022-08-09T00:09:05.458Z,64.93
2022-08-09T00:13:33.798Z,65.37
2022-08-09T00:18:41.206Z,65.70
2022-08-09T00:23:55.056Z,65.79
2022-08-09T00:27:36.270Z,66.21
2022-08-09T00:32:12.776Z,66.39
2022-08-09T00:36:33.906Z,66.21
2022-08-09T00:40:37.219Z,66.29
2022-08-09T00:44:46.982Z,66.33
2022-08-09T00:48:54.475Z,66.46
2022-08-09T00:53:10.486Z,66.67
2022-08-09T00:57:33.999Z,66.47
2022-08-09T01:02:00.533Z,66.39
2022-08-09T01:06:35.232Z,66.30
2022-08-09T01:11:56.504Z,66.10
2022-08-09T01:16:21.276Z,66.19
2022-08-09T01:21:00.211Z,66.14
2022-08-09T01:25:42.024Z,66.21
2022-08-09T01:30:28.843Z,66.18
2022-08-09T01:34:56.912Z,66.38
2022-08-09T01:39:03.892Z,66.39
2022-08-09T01:43:11.383Z,66.30
2022-08-09T01:47:49.794Z,66.33
2022-08-09T01:52:16.261Z,66.33
2022-08-09T01:56:24.422Z,66.17
2022-08-09T02:00:57.706Z,66.03
2022-08-09T02:06:06.425Z,65.94
2022-08-09T02:12:21.234Z,66.02
2022-08-09T02:17:15.553Z,66.22
2022-08-09T02:21:42.191Z,66.13
2022-08-09T02:26:58.618Z,66.14
2022-08-09T02:31:14.301Z,66.18
2022-08-09T02:36:03.223Z,66.23
2022-08-09T02:40:10.835Z,66.29
2022-08-09T02:44:38.471Z,66.54
2022-08-09T02:48:46.207Z,66.51
2022-08-09T02:53:03.653Z,66.40
2022-08-09T02:57:13.705Z,66.32
2022-08-09T03:02:06.088Z,66.32
2022-08-09T03:06:50.747Z,66.51
2022-08-09T03:11:10.927Z,66.65
2022-08-09T03:15:40.669Z,66.62
2022-08-09T03:20:15.701Z,66.63
2022-08-09T03:24:36.819Z,66.65
2022-08-09T03:29:23.398Z,66.77
2022-08-09T03:33:53.347Z,67.06
2022-08-09T03:38:28.565Z,67.32
2022-08-09T03:42:36.272Z,67.46
2022-08-09T03:46:46.658Z,67.42
2022-08-09T03:51:56.869Z,67.19
2022-08-09T03:55:54.387Z,67.35
2022-08-09T04:00:17.452Z,67.63
2022-08-09T04:04:32.537Z,67.56
2022-08-09T04:08:39.622Z,67.56
2022-08-09T04:12:51.399Z,67.52
2022-08-09T04:17:21.442Z,67.61
2022-08-09T04:21:43.405Z,67.74
2022-08-09T04:25:51.924Z,67.95
2022-08-09T04:30:09.782Z,67.62
2022-08-09T04:34:34.727Z,67.14
2022-08-09T04:38:53.091Z,66.68
2022-08-09T04:43:10.593Z,66.42
2022-08-09T04:48:59.447Z,66.32
2022-08-09T04:52:37.448Z,66.20
2022-08-09T04:56:46.246Z,66.10
2022-08-09T05:01:16.368Z,66.11
2022-08-09T05:06:06.744Z,66.08
2022-08-09T05:10:12.840Z,66.20
2022-08-09T05:14:48.716Z,66.41
2022-08-09T05:18:58.681Z,66.66
2022-08-09T05:23:59.510Z,66.86
2022-08-09T05:27:24.954Z,67.13
2022-08-09T05:31:44.223Z,67.22
2022-08-09T05:35:58.989Z,67.36
2022-08-09T05:40:06.305Z,67.03
2022-08-09T05:44:09.021Z,66.79
2022-08-09T05:48:21.640Z,66.53
2022-08-09T05:52:40.461Z,66.08
2022-08-09T05:56:54.401Z,65.68
2022-08-09T06:01:26.534Z,65.80
2022-08-09T06:06:04.495Z,65.68
2022-08-09T06:10:44.113Z,65.66
2022-08-09T06:15:01.319Z,65.52
2022-08-09T06:19:18.600Z,64.98
2022-08-09T06:23:57.936Z,64.74
2022-08-09T06:27:55.729Z,63.95
2022-08-09T06:32:36.195Z,63.92
2022-08-09T06:36:27.019Z,63.56
2022-08-09T06:40:33.395Z,63.39
2022-08-09T06:44:38.337Z,63.45
2022-08-09T06:48:43.063Z,63.16
2022-08-09T06:52:51.433Z,62.53
2022-08-09T06:57:18.185Z,62.24
2022-08-09T07:01:54.763Z,62.03
2022-08-09T07:06:29.608Z,61.15
2022-08-09T07:10:43.975Z,61.10
2022-08-09T07:16:36.272Z,60.98
2022-08-09T07:19:58.023Z,60.56
2022-08-09T07:24:49.174Z,60.50
2022-08-09T07:29:09.187Z,60.83
2022-08-09T07:33:23.582Z,60.61
2022-08-09T07:37:46.094Z,59.96
2022-08-09T07:42:11.571Z,59.62
2022-08-09T07:46:51.108Z,58.00
2022-08-09T07:52:05.617Z,57.44
2022-08-09T07:56:03.278Z,57.23
2022-08-09T08:00:35.695Z,57.32
2022-08-09T08:05:00.322Z,57.37
2022-08-09T08:09:45.172Z,56.49
2022-08-09T08:18:26.235Z,55.03
2022-08-09T08:22:33.470Z,54.33
2022-08-09T08:27:06.521Z,53.94
2022-08-09T08:31:56.528Z,53.18
2022-08-09T08:36:28.884Z,52.11
2022-08-09T08:40:35.374Z,52.66
2022-08-09T08:45:13.527Z,52.78
2022-08-09T08:49:38.815Z,52.82
2022-08-09T08:54:02.894Z,52.56
2022-08-09T08:58:39.294Z,52.08
2022-08-09T09:02:55.707Z,51.80
2022-08-09T09:07:11.408Z,51.73
2022-08-09T09:11:44.543Z,52.01
2022-08-09T09:16:07.046Z,52.36
2022-08-09T09:20:21.555Z,52.31
2022-08-09T09:26:01.042Z,51.41
2022-08-09T09:30:11.391Z,50.72
2022-08-09T09:34:18.805Z,50.12
2022-08-09T09:38:47.638Z,49.39
2022-08-09T09:43:00.998Z,49.40
2022-08-09T09:47:28.507Z,48.96
2022-08-09T09:51:40.221Z,48.50
2022-08-09T09:56:20.025Z,48.48
2022-08-09T10:01:30.237Z,48.24
2022-08-09T10:06:11.749Z,47.77
2022-08-09T10:11:53.763Z,47.49
2022-08-09T10:16:55.556Z,47.09
2022-08-09T10:21:12.860Z,46.37
2022-08-09T10:26:07.886Z,45.76
2022-08-09T10:35:13.342Z,45.50
2022-08-09T10:39:23.030Z,45.55
2022-08-09T10:43:48.532Z,45.06
2022-08-09T10:53:46.790Z,45.28
2022-08-09T10:58:03.645Z,45.37
2022-08-09T11:03:18.429Z,45.17
2022-08-09T11:12:14.808Z,43.85
2022-08-09T11:16:40.897Z,43.83
2022-08-09T11:21:08.677Z,43.65
2022-08-09T11:25:25.657Z,43.73
2022-08-09T11:30:32.695Z,43.13
2022-08-09T11:35:04.047Z,43.21
2022-08-09T11:39:12.081Z,43.09
2022-08-09T11:43:32.397Z,42.97
2022-08-09T11:47:59.931Z,42.96
2022-08-09T11:53:03.499Z,42.32
2022-08-09T11:56:48.013Z,42.16
2022-08-09T12:01:01.086Z,41.89
2022-08-09T12:05:26.439Z,41.46
2022-08-09T12:09:50.706Z,41.56
2022-08-09T12:14:12.294Z,40.82
2022-08-09T12:18:59.512Z,40.25
2022-08-09T12:23:17.704Z,39.31
2022-08-09T12:28:59.752Z,38.63
2022-08-09T12:33:02.536Z,39.08
2022-08-09T12:37:21.863Z,38.86
2022-08-09T12:41:40.005Z,38.73
2022-08-09T12:46:03.671Z,38.83
2022-08-09T12:50:28.607Z,38.84
2022-08-09T12:56:12.653Z,37.54
2022-08-09T12:59:40.020Z,38.37
2022-08-09T13:04:50.811Z,38.72
2022-08-09T13:09:13.818Z,38.50
2022-08-09T13:14:37.347Z,38.42
2022-08-09T13:18:53.583Z,37.80
2022-08-09T13:24:17.303Z,37.44
2022-08-09T13:27:56.707Z,37.20
2022-08-09T13:32:27.651Z,37.55
2022-08-09T13:37:08.914Z,37.30
2022-08-09T13:41:58.476Z,37.48
2022-08-09T13:47:16.191Z,37.49
2022-08-09T13:50:48.463Z,37.46
2022-08-09T13:55:30.576Z,37.59
2022-08-09T13:59:58.070Z,37.36
2022-08-09T14:04:24.222Z,37.47
2022-08-09T14:08:38.980Z,37.61
2022-08-09T14:19:04.683Z,37.62
2022-08-09T14:23:54.787Z,37.45
2022-08-09T14:30:35.527Z,38.03
2022-08-09T15:40:11.698Z,43.52
